createdAt,value
2023-01-19T00:02:08.016Z,5.22
2023-01-19T00:05:09.968Z,5.00
2023-01-19T00:08:15.052Z,5.05
2023-01-19T00:11:19.625Z,4.40
2023-01-19T00:14:21.245Z,5.85
2023-01-19T00:17:22.873Z,5.82
2023-01-19T00:20:24.551Z,6.50
2023-01-19T00:23:26.233Z,6.20
2023-01-19T00:26:27.841Z,5.85
2023-01-19T00:29:34.350Z,5.72
2023-01-19T00:32:36.006Z,5.88
2023-01-19T00:35:37.878Z,6.00
2023-01-19T00:38:39.531Z,6.72
2023-01-19T00:41:59.969Z,6.97
2023-01-19T00:45:01.604Z,6.47
2023-01-19T00:48:03.450Z,5.75
2023-01-19T00:51:05.348Z,6.55
2023-01-19T00:54:10.286Z,6.57
2023-01-19T00:57:12.316Z,6.10
2023-01-19T01:00:16.769Z,6.50
2023-01-19T01:03:18.549Z,6.63
2023-01-19T01:06:21.017Z,6.03
2023-01-19T01:09:23.593Z,6.65
2023-01-19T01:12:25.405Z,6.60
2023-01-19T01:15:28.344Z,6.60
2023-01-19T01:18:30.085Z,6.63
2023-01-19T01:21:32.064Z,6.75
2023-01-19T01:24:33.671Z,6.78
2023-01-19T01:27:35.277Z,6.28
2023-01-19T01:30:40.994Z,6.55
2023-01-19T01:33:42.602Z,6.78
2023-01-19T01:36:44.328Z,6.05
2023-01-19T01:39:45.990Z,6.10
2023-01-19T01:42:47.582Z,6.85
2023-01-19T01:45:49.397Z,6.60
2023-01-19T01:48:54.938Z,7.03
2023-01-19T01:51:56.660Z,6.93
2023-01-19T01:54:59.026Z,6.82
2023-01-19T01:58:05.018Z,6.15
2023-01-19T02:01:29.311Z,7.28
2023-01-19T02:04:31.987Z,7.10
2023-01-19T02:08:09.392Z,6.57
2023-01-19T02:11:30.176Z,6.60
2023-01-19T02:14:32.005Z,6.57
2023-01-19T02:17:33.692Z,7.55
2023-01-19T02:20:38.204Z,6.40
2023-01-19T02:23:52.841Z,6.80
2023-01-19T02:26:56.207Z,6.50
2023-01-19T02:29:59.098Z,6.32
2023-01-19T02:33:01.356Z,7.03
2023-01-19T02:36:05.908Z,6.30
2023-01-19T02:39:09.719Z,6.63
2023-01-19T02:42:23.085Z,6.43
2023-01-19T02:45:24.860Z,6.82
2023-01-19T02:48:26.779Z,7.35
2023-01-19T02:51:29.149Z,6.00
2023-01-19T02:54:49.304Z,7.28
2023-01-19T02:58:12.181Z,6.78
2023-01-19T03:01:29.279Z,6.82
2023-01-19T03:08:15.816Z,6.35
2023-01-19T03:11:17.740Z,6.32
2023-01-19T03:14:25.151Z,7.28
2023-01-19T03:17:31.070Z,6.35
2023-01-19T03:20:32.726Z,6.47
2023-01-19T03:23:38.642Z,6.95
2023-01-19T03:26:45.997Z,6.57
2023-01-19T03:29:52.667Z,6.28
2023-01-19T03:33:08.340Z,5.78
2023-01-19T03:36:21.731Z,5.80
2023-01-19T03:39:26.610Z,6.47
2023-01-19T03:42:29.199Z,5.63
2023-01-19T03:45:33.516Z,5.45
2023-01-19T03:48:37.328Z,6.03
2023-01-19T03:51:39.827Z,6.38
2023-01-19T03:54:41.805Z,6.57
2023-01-19T03:57:43.740Z,5.47
2023-01-19T04:00:45.525Z,5.63
2023-01-19T04:03:47.289Z,5.80
2023-01-19T04:06:49.023Z,5.43
2023-01-19T04:09:50.692Z,5.65
2023-01-19T04:12:58.698Z,5.93
2023-01-19T04:16:02.125Z,6.25
2023-01-19T04:19:03.836Z,5.93
2023-01-19T04:22:05.519Z,6.05
2023-01-19T04:25:08.638Z,5.45
2023-01-19T04:28:10.259Z,5.03
2023-01-19T04:31:12.535Z,5.30
2023-01-19T04:34:14.203Z,5.35
2023-01-19T04:37:15.798Z,5.05
2023-01-19T04:40:17.600Z,5.63
2023-01-19T04:43:23.365Z,5.75
2023-01-19T04:46:25.297Z,4.95
2023-01-19T04:49:27.042Z,5.22
2023-01-19T04:52:35.988Z,5.45
2023-01-19T04:55:38.810Z,5.47
2023-01-19T04:58:40.508Z,5.57
2023-01-19T05:01:42.271Z,4.72
2023-01-19T05:04:43.896Z,4.95
2023-01-19T05:07:45.622Z,5.45
2023-01-19T05:10:48.144Z,5.05
2023-01-19T05:13:50.980Z,4.47
2023-01-19T05:16:53.190Z,5.40
2023-01-19T05:19:54.978Z,5.18
2023-01-19T05:22:56.558Z,5.38
2023-01-19T05:26:00.882Z,5.00
2023-01-19T05:29:02.547Z,5.03
2023-01-19T05:32:04.602Z,4.88
2023-01-19T05:35:07.195Z,5.35
2023-01-19T05:38:09.250Z,4.72
2023-01-19T05:41:10.960Z,4.97
2023-01-19T05:44:13.180Z,5.13
2023-01-19T05:47:14.850Z,4.93
2023-01-19T05:50:16.733Z,4.50
2023-01-19T05:53:18.401Z,4.68
2023-01-19T05:56:20.268Z,4.97
2023-01-19T05:59:24.215Z,4.93
2023-01-19T06:02:28.800Z,4.65
2023-01-19T06:05:30.726Z,4.93
2023-01-19T06:08:32.587Z,4.28
2023-01-19T06:11:34.259Z,4.78
2023-01-19T06:14:38.033Z,8.45
2023-01-19T06:17:39.739Z,8.68
2023-01-19T06:20:41.544Z,6.78
2023-01-19T06:23:43.270Z,5.22
2023-01-19T06:26:45.146Z,8.25
2023-01-19T06:29:46.975Z,5.82
2023-01-19T06:32:48.740Z,6.53
2023-01-19T06:35:51.873Z,4.85
2023-01-19T06:38:53.617Z,4.55
2023-01-19T06:41:55.403Z,5.13
2023-01-19T06:44:57.072Z,5.10
2023-01-19T06:47:58.959Z,5.70
2023-01-19T06:51:00.611Z,4.90
2023-01-19T06:54:02.580Z,4.63
2023-01-19T06:57:04.475Z,5.55
2023-01-19T07:00:09.071Z,4.65
2023-01-19T07:03:19.764Z,4.70
2023-01-19T07:06:21.469Z,4.90
2023-01-19T07:09:24.953Z,6.30
2023-01-19T07:12:26.542Z,5.95
2023-01-19T07:15:28.288Z,6.82
2023-01-19T07:18:29.903Z,5.80
2023-01-19T07:21:31.910Z,5.40
2023-01-19T07:24:34.997Z,5.28
2023-01-19T07:27:36.583Z,5.35
2023-01-19T07:30:38.308Z,4.70
2023-01-19T07:33:40.007Z,5.32
2023-01-19T07:36:41.656Z,5.05
2023-01-19T07:39:43.286Z,4.80
2023-01-19T07:42:49.209Z,4.82
2023-01-19T07:45:50.846Z,4.40
2023-01-19T07:48:52.432Z,5.80
2023-01-19T07:51:56.332Z,5.38
2023-01-19T07:54:59.287Z,6.93
2023-01-19T07:58:00.989Z,7.10
2023-01-19T08:01:10.679Z,7.65
2023-01-19T08:04:12.360Z,5.80
2023-01-19T08:07:14.104Z,4.80
2023-01-19T08:10:16.782Z,5.28
2023-01-19T08:13:18.898Z,4.70
2023-01-19T08:16:20.491Z,5.30
2023-01-19T08:19:22.195Z,5.15
2023-01-19T08:22:23.743Z,4.90
2023-01-19T08:25:46.047Z,5.65
2023-01-19T08:28:47.674Z,4.63
2023-01-19T08:31:49.376Z,5.35
2023-01-19T08:34:51.039Z,4.60
2023-01-19T08:37:52.691Z,4.88
2023-01-19T08:40:54.330Z,5.18
2023-01-19T08:43:56.001Z,4.75
2023-01-19T08:46:57.590Z,11.90
2023-01-19T08:49:59.195Z,4.63
2023-01-19T08:53:02.911Z,5.03
2023-01-19T08:56:05.937Z,5.07
2023-01-19T08:59:10.855Z,4.15
2023-01-19T09:02:13.891Z,5.85
2023-01-19T09:05:15.770Z,4.70
2023-01-19T09:08:17.712Z,5.68
2023-01-19T09:11:19.902Z,5.13
2023-01-19T09:14:21.818Z,5.03
2023-01-19T09:17:23.982Z,5.15
2023-01-19T09:20:25.738Z,4.90
2023-01-19T09:23:27.789Z,5.50
2023-01-19T09:26:30.253Z,5.50
2023-01-19T09:29:32.795Z,5.47
2023-01-19T09:32:34.791Z,4.57
2023-01-19T09:35:37.667Z,4.50
2023-01-19T09:38:39.395Z,5.60
2023-01-19T09:41:47.308Z,4.57
2023-01-19T09:44:50.911Z,4.40
2023-01-19T09:47:54.571Z,5.13
2023-01-19T09:51:01.999Z,5.00
2023-01-19T09:54:14.149Z,4.75
2023-01-19T09:57:16.008Z,4.88
2023-01-19T10:00:18.742Z,4.70
2023-01-19T10:03:21.135Z,4.68
2023-01-19T10:06:23.256Z,4.82
2023-01-19T10:09:47.637Z,6.20
2023-01-19T10:12:55.121Z,6.25
2023-01-19T10:16:33.893Z,5.60
2023-01-19T10:19:40.267Z,5.57
2023-01-19T10:22:43.381Z,4.75
2023-01-19T10:25:46.224Z,5.63
2023-01-19T10:28:50.914Z,5.95
2023-01-19T10:32:04.235Z,5.63
2023-01-19T10:35:21.992Z,5.85
2023-01-19T10:38:24.614Z,5.50
2023-01-19T10:41:32.035Z,5.90
2023-01-19T10:44:37.802Z,4.90
2023-01-19T10:47:40.030Z,5.60
2023-01-19T10:50:42.168Z,5.50
2023-01-19T10:53:58.904Z,4.80
2023-01-19T10:57:10.291Z,5.63
2023-01-19T11:00:37.838Z,5.00
2023-01-19T11:03:39.676Z,5.18
2023-01-19T11:06:41.259Z,4.95
2023-01-19T11:09:42.861Z,5.63
2023-01-19T11:12:53.879Z,4.63
2023-01-19T11:16:04.292Z,4.90
2023-01-19T11:19:15.484Z,4.53
2023-01-19T11:22:27.880Z,5.53
2023-01-19T11:25:32.041Z,5.07
2023-01-19T11:28:37.721Z,4.53
2023-01-19T11:31:39.683Z,4.63
2023-01-19T11:34:41.455Z,5.07
2023-01-19T11:37:43.247Z,4.65
2023-01-19T11:40:56.638Z,4.10
2023-01-19T11:44:30.000Z,4.90
2023-01-19T11:47:54.714Z,4.70
2023-01-19T11:51:00.471Z,4.93
2023-01-19T11:54:08.439Z,4.55
2023-01-19T11:57:17.173Z,4.75
2023-01-19T12:00:43.625Z,5.25
2023-01-19T12:03:59.222Z,4.50
2023-01-19T12:07:08.943Z,3.67
2023-01-19T12:10:27.173Z,3.72
2023-01-19T12:13:30.671Z,4.25
2023-01-19T12:16:34.776Z,4.30
2023-01-19T12:19:54.896Z,4.00
2023-01-19T12:23:32.108Z,4.25
2023-01-19T12:26:55.875Z,4.20
2023-01-19T12:29:57.906Z,3.90
2023-01-19T12:33:20.590Z,4.00
2023-01-19T12:36:35.587Z,4.15
2023-01-19T12:39:48.843Z,3.75
2023-01-19T12:42:59.519Z,4.97
2023-01-19T12:46:02.094Z,4.00
2023-01-19T12:49:12.386Z,4.80
2023-01-19T12:52:41.561Z,4.25
2023-01-19T12:55:46.823Z,4.05
2023-01-19T12:58:49.978Z,3.97
2023-01-19T13:02:28.693Z,5.35
2023-01-19T13:05:39.451Z,4.50
2023-01-19T13:09:00.751Z,4.35
2023-01-19T13:12:14.668Z,4.43
2023-01-19T13:15:35.352Z,4.65
2023-01-19T13:18:41.617Z,5.57
2023-01-19T13:21:48.640Z,3.85
2023-01-19T13:25:14.088Z,4.82
2023-01-19T13:28:18.399Z,4.03
2023-01-19T13:31:20.907Z,4.43
2023-01-19T13:34:25.987Z,4.22
2023-01-19T13:37:35.128Z,4.63
2023-01-19T13:40:39.005Z,3.72
2023-01-19T13:43:42.817Z,4.70
2023-01-19T13:46:46.797Z,4.57
2023-01-19T13:49:53.171Z,5.63
2023-01-19T13:52:56.652Z,5.28
2023-01-19T13:56:18.249Z,3.65
2023-01-19T13:59:20.051Z,4.10
2023-01-19T14:02:21.945Z,4.53
2023-01-19T14:05:30.044Z,6.70
2023-01-19T14:08:32.864Z,4.47
2023-01-19T14:11:35.073Z,5.38
2023-01-19T14:14:36.771Z,5.93
2023-01-19T14:17:38.675Z,15.57
2023-01-19T14:20:41.303Z,5.95
2023-01-19T14:23:52.052Z,8.32
2023-01-19T14:26:54.843Z,4.78
2023-01-19T14:30:20.639Z,8.32
2023-01-19T14:33:48.011Z,5.50
2023-01-19T14:36:51.620Z,4.15
2023-01-19T14:40:08.218Z,5.03
2023-01-19T14:43:13.354Z,5.63
2023-01-19T14:46:19.228Z,5.32
2023-01-19T14:49:34.197Z,3.85
2023-01-19T14:52:42.310Z,4.50
2023-01-19T14:55:52.252Z,5.35
2023-01-19T14:58:55.805Z,5.22
2023-01-19T15:01:57.688Z,4.80
2023-01-19T15:04:59.433Z,4.10
2023-01-19T15:08:03.109Z,3.80
2023-01-19T15:11:21.986Z,5.10
2023-01-19T15:14:23.789Z,4.03
2023-01-19T15:17:25.725Z,4.57
2023-01-19T15:20:27.395Z,5.13
2023-01-19T15:23:30.753Z,6.57
2023-01-19T15:26:32.396Z,5.70
2023-01-19T15:29:34.221Z,4.20
2023-01-19T15:32:35.852Z,4.95
2023-01-19T15:35:37.505Z,3.70
2023-01-19T15:38:39.547Z,4.85
2023-01-19T15:41:41.305Z,5.07
2023-01-19T15:44:42.997Z,4.15
2023-01-19T15:47:44.705Z,3.58
2023-01-19T15:50:46.712Z,4.85
2023-01-19T15:53:49.722Z,4.50
2023-01-19T15:56:52.711Z,4.20
2023-01-19T15:59:54.488Z,4.18
2023-01-19T16:02:56.158Z,4.43
2023-01-19T16:06:01.611Z,4.28
2023-01-19T16:09:04.003Z,4.53
2023-01-19T16:12:06.063Z,4.38
2023-01-19T16:15:08.364Z,4.55
2023-01-19T16:18:10.385Z,4.78
2023-01-19T16:21:12.053Z,6.30
2023-01-19T16:24:13.707Z,5.20
2023-01-19T16:27:15.355Z,4.68
2023-01-19T16:30:19.391Z,6.95
2023-01-19T16:33:21.109Z,5.50
2023-01-19T16:36:28.887Z,6.80
2023-01-19T16:39:30.641Z,6.45
2023-01-19T16:42:32.459Z,7.50
2023-01-19T16:45:34.141Z,8.32
2023-01-19T16:48:36.053Z,7.05
2023-01-19T16:51:37.911Z,9.43
2023-01-19T16:54:42.487Z,11.73
2023-01-19T16:57:44.254Z,5.88
2023-01-19T17:00:45.906Z,5.72
2023-01-19T17:03:48.275Z,5.68
2023-01-19T17:06:50.210Z,5.38
2023-01-19T17:09:52.251Z,5.20
2023-01-19T17:12:53.817Z,4.35
2023-01-19T17:16:02.611Z,4.55
2023-01-19T17:19:06.133Z,4.72
2023-01-19T17:22:07.920Z,5.53
2023-01-19T17:25:09.632Z,6.13
2023-01-19T17:28:11.275Z,6.03
2023-01-19T17:31:20.281Z,5.32
2023-01-19T17:34:22.070Z,4.97
2023-01-19T17:37:23.702Z,4.65
2023-01-19T17:40:26.182Z,4.65
2023-01-19T17:43:28.002Z,4.70
2023-01-19T17:46:30.622Z,4.80
2023-01-19T17:49:32.499Z,4.60
2023-01-19T17:52:34.235Z,4.80
2023-01-19T17:55:35.977Z,4.45
2023-01-19T17:58:38.557Z,4.40
2023-01-19T18:01:41.387Z,4.47
2023-01-19T18:04:43.177Z,4.88
2023-01-19T18:07:45.147Z,4.50
2023-01-19T18:10:57.893Z,4.97
2023-01-19T18:14:00.816Z,4.60
2023-01-19T18:17:02.537Z,4.78
2023-01-19T18:20:04.658Z,5.07
2023-01-19T18:23:07.163Z,5.07
2023-01-19T18:26:15.406Z,5.43
2023-01-19T18:29:19.261Z,4.82
2023-01-19T18:32:21.802Z,5.60
2023-01-19T18:35:23.443Z,5.68
2023-01-19T18:38:25.419Z,5.45
2023-01-19T18:41:29.717Z,5.30
2023-01-19T18:44:31.513Z,5.18
2023-01-19T18:47:36.228Z,5.13
2023-01-19T18:50:37.897Z,5.13
2023-01-19T18:53:39.778Z,4.30
2023-01-19T18:56:41.353Z,5.53
2023-01-19T18:59:43.961Z,4.85
2023-01-19T19:03:48.363Z,5.45
2023-01-19T19:24:11.566Z,5.15
2023-01-19T19:27:14.476Z,4.80
2023-01-19T19:30:16.636Z,4.03
2023-01-19T19:33:18.217Z,4.38
2023-01-19T19:36:21.441Z,4.43
2023-01-19T19:39:23.181Z,4.50
2023-01-19T19:42:25.007Z,4.80
2023-01-19T19:45:26.986Z,4.05
2023-01-19T19:48:28.984Z,4.78
2023-01-19T19:51:30.652Z,3.80
2023-01-19T19:54:32.386Z,4.32
2023-01-19T19:57:34.125Z,4.95
2023-01-19T20:00:35.790Z,4.75
2023-01-19T20:03:37.841Z,4.50
2023-01-19T20:06:44.586Z,4.57
2023-01-19T20:12:47.865Z,4.55
2023-01-19T20:15:49.594Z,4.60
2023-01-19T20:18:54.242Z,5.00
2023-01-19T20:21:56.048Z,4.25
2023-01-19T20:24:57.795Z,4.55
2023-01-19T20:27:59.544Z,4.50
2023-01-19T20:31:11.796Z,4.53
2023-01-19T20:34:15.806Z,4.20
2023-01-19T20:37:17.596Z,3.83
2023-01-19T20:40:19.513Z,3.65
2023-01-19T20:43:21.160Z,4.10
2023-01-19T20:46:22.876Z,3.75
2023-01-19T20:49:25.054Z,3.88
2023-01-19T20:52:26.832Z,4.55
2023-01-19T20:55:28.563Z,4.60
2023-01-19T20:58:31.313Z,3.92
2023-01-19T21:01:33.192Z,4.18
2023-01-19T21:04:34.902Z,3.55
2023-01-19T21:07:36.891Z,3.83
2023-01-19T21:10:38.570Z,3.75
2023-01-19T21:13:40.511Z,3.67
2023-01-19T21:16:42.667Z,3.33
2023-01-19T21:19:44.425Z,3.85
2023-01-19T21:22:46.238Z,3.60
2023-01-19T21:25:55.642Z,3.63
2023-01-19T21:28:58.437Z,3.80
2023-01-19T21:32:01.124Z,3.72
2023-01-19T21:35:02.870Z,3.67
2023-01-19T21:38:04.552Z,3.35
2023-01-19T21:41:12.690Z,3.35
2023-01-19T21:44:14.748Z,3.45
2023-01-19T21:47:16.533Z,3.80
2023-01-19T21:50:19.600Z,3.22
2023-01-19T21:53:21.233Z,3.65
2023-01-19T21:56:23.135Z,3.47
2023-01-19T21:59:24.950Z,3.88
2023-01-19T22:02:37.909Z,3.38
2023-01-19T22:05:40.141Z,3.72
2023-01-19T22:08:41.963Z,3.20
2023-01-19T22:11:43.688Z,3.38
2023-01-19T22:14:45.398Z,3.58
2023-01-19T22:17:47.335Z,3.90
2023-01-19T22:20:48.952Z,3.13
2023-01-19T22:23:53.111Z,3.55
2023-01-19T22:26:54.894Z,3.90
2023-01-19T22:29:56.651Z,4.00
2023-01-19T22:32:58.344Z,3.72
2023-01-19T22:36:21.430Z,2.95
2023-01-19T22:39:23.074Z,3.28
2023-01-19T22:42:24.685Z,3.40
2023-01-19T22:45:26.453Z,3.15
2023-01-19T22:48:28.100Z,3.15
2023-01-19T22:51:30.945Z,3.30
2023-01-19T22:59:36.881Z,3.30
2023-01-19T23:02:38.448Z,3.58
2023-01-19T23:05:40.148Z,3.30
2023-01-19T23:08:42.474Z,3.17
2023-01-19T23:11:51.258Z,3.03
2023-01-19T23:14:53.229Z,3.40
2023-01-19T23:17:54.806Z,3.10
2023-01-19T23:21:01.477Z,2.80
2023-01-19T23:24:05.104Z,3.67
2023-01-19T23:27:06.796Z,2.97
2023-01-19T23:30:09.095Z,3.20
2023-01-19T23:33:10.740Z,3.20
2023-01-19T23:36:13.432Z,3.33
2023-01-19T23:39:17.806Z,3.63
2023-01-19T23:42:19.428Z,3.00
2023-01-19T23:45:21.181Z,2.70
2023-01-19T23:48:22.809Z,3.10
2023-01-19T23:51:28.036Z,3.53
2023-01-19T23:54:29.673Z,3.47
2023-01-19T23:57:31.245Z,2.53
